createdAt,value
2018-08-16T00:00:02.514Z,10.37
2018-08-16T00:02:30.186Z,10.67
2018-08-16T00:04:58.076Z,11.83
2018-08-16T00:07:25.821Z,10.87
2018-08-16T00:09:54.212Z,10.83
2018-08-16T00:12:21.962Z,11.50
2018-08-16T00:14:49.794Z,11.37
2018-08-16T00:17:17.620Z,11.20
2018-08-16T00:19:45.334Z,10.97
2018-08-16T00:22:13.130Z,12.23
2018-08-16T00:24:40.841Z,11.00
2018-08-16T00:27:08.627Z,10.97
2018-08-16T00:29:36.330Z,10.20
2018-08-16T00:32:04.059Z,11.50
2018-08-16T00:34:31.870Z,11.33
2018-08-16T00:36:59.786Z,10.63
2018-08-16T00:39:27.673Z,11.40
2018-08-16T00:41:55.506Z,11.23
2018-08-16T00:44:23.341Z,11.87
2018-08-16T00:46:51.167Z,10.97
2018-08-16T00:49:18.955Z,11.07
2018-08-16T00:51:46.722Z,10.43
2018-08-16T00:54:14.532Z,11.43
2018-08-16T00:56:42.285Z,10.77
2018-08-16T00:59:09.978Z,10.70
2018-08-16T01:01:37.666Z,10.60
2018-08-16T01:04:05.701Z,10.57
2018-08-16T01:06:33.360Z,10.30
2018-08-16T01:09:01.019Z,10.20
2018-08-16T01:11:28.777Z,10.37
2018-08-16T01:13:56.429Z,10.67
2018-08-16T01:16:24.108Z,10.77
2018-08-16T01:18:51.945Z,11.07
2018-08-16T01:21:19.590Z,10.17
2018-08-16T01:23:47.248Z,9.97
2018-08-16T01:26:14.982Z,9.63
2018-08-16T01:28:42.809Z,8.40
2018-08-16T01:31:10.630Z,9.10
2018-08-16T01:33:38.357Z,8.57
2018-08-16T01:36:06.137Z,9.30
2018-08-16T01:38:33.835Z,10.07
2018-08-16T01:41:01.530Z,11.20
2018-08-16T01:43:29.196Z,11.30
2018-08-16T01:45:56.875Z,11.40
2018-08-16T01:48:24.569Z,10.93
2018-08-16T01:50:52.287Z,10.37
2018-08-16T01:53:20.395Z,10.40
2018-08-16T01:55:48.123Z,11.90
2018-08-16T01:58:15.835Z,11.37
2018-08-16T02:00:43.506Z,12.10
2018-08-16T02:03:11.169Z,11.97
2018-08-16T02:05:38.858Z,11.93
2018-08-16T02:08:06.657Z,11.43
2018-08-16T02:10:34.321Z,12.07
2018-08-16T02:13:02.014Z,12.90
2018-08-16T02:15:29.705Z,11.40
2018-08-16T02:17:57.372Z,10.87
2018-08-16T02:20:25.089Z,15.53
2018-08-16T02:22:52.771Z,16.30
2018-08-16T02:25:20.499Z,14.43
2018-08-16T02:27:48.186Z,12.37
2018-08-16T02:30:15.841Z,11.83
2018-08-16T02:32:43.529Z,11.30
2018-08-16T02:35:11.284Z,14.13
2018-08-16T02:37:39.006Z,14.77
2018-08-16T02:40:07.386Z,14.47
2018-08-16T02:42:35.202Z,13.27
2018-08-16T02:45:02.971Z,12.23
2018-08-16T02:47:30.653Z,12.93
2018-08-16T02:49:58.305Z,12.43
2018-08-16T02:52:26.001Z,11.67
2018-08-16T02:54:53.681Z,11.60
2018-08-16T02:57:21.437Z,11.13
2018-08-16T02:59:49.091Z,11.33
2018-08-16T03:02:16.777Z,12.47
2018-08-16T03:04:44.539Z,11.20
2018-08-16T03:07:12.220Z,11.37
2018-08-16T03:09:39.921Z,11.70
2018-08-16T03:12:09.689Z,12.23
2018-08-16T03:14:37.514Z,11.53
2018-08-16T03:17:05.345Z,12.13
2018-08-16T03:19:33.037Z,11.87
2018-08-16T03:22:00.755Z,11.33
2018-08-16T03:24:28.430Z,11.73
2018-08-16T03:26:56.109Z,11.37
2018-08-16T03:29:23.815Z,12.07
2018-08-16T03:31:51.475Z,11.83
2018-08-16T03:34:19.129Z,10.40
2018-08-16T03:36:46.790Z,10.63
2018-08-16T03:39:14.438Z,11.70
2018-08-16T03:41:42.157Z,12.67
2018-08-16T03:44:09.796Z,12.33
2018-08-16T03:46:37.502Z,11.47
2018-08-16T03:49:05.342Z,11.13
2018-08-16T03:51:32.986Z,9.63
2018-08-16T03:54:00.641Z,8.53
2018-08-16T03:56:28.379Z,8.00
2018-08-16T03:58:56.054Z,6.90
2018-08-16T04:01:23.722Z,7.13
2018-08-16T04:03:51.419Z,7.50
2018-08-16T04:06:19.098Z,6.40
2018-08-16T04:08:46.759Z,6.70
2018-08-16T04:11:14.506Z,6.33
2018-08-16T04:13:42.238Z,6.90
2018-08-16T04:16:09.976Z,7.03
2018-08-16T04:18:37.630Z,6.20
2018-08-16T04:21:05.354Z,6.00
2018-08-16T04:23:33.063Z,8.30
2018-08-16T04:26:00.730Z,8.33
2018-08-16T04:28:28.386Z,9.40
2018-08-16T04:30:56.046Z,9.30
2018-08-16T04:33:23.736Z,10.53
2018-08-16T04:35:51.382Z,10.30
2018-08-16T04:38:19.022Z,10.70
2018-08-16T04:40:46.658Z,11.30
2018-08-16T04:43:14.314Z,9.90
2018-08-16T04:45:41.996Z,10.37
2018-08-16T04:48:09.636Z,10.13
2018-08-16T04:50:37.315Z,10.77
2018-08-16T04:53:05.143Z,11.00
2018-08-16T04:55:32.821Z,10.63
2018-08-16T04:58:00.518Z,10.87
2018-08-16T05:00:28.257Z,10.97
2018-08-16T05:02:55.973Z,11.67
2018-08-16T05:05:23.677Z,11.50
2018-08-16T05:07:51.347Z,11.77
2018-08-16T05:10:19.030Z,11.07
2018-08-16T05:12:46.673Z,10.93
2018-08-16T05:15:14.366Z,10.10
2018-08-16T05:17:42.014Z,10.50
2018-08-16T05:20:11.849Z,10.20
2018-08-16T05:22:39.557Z,9.73
2018-08-16T05:25:07.330Z,10.67
2018-08-16T05:27:35.349Z,10.90
2018-08-16T05:30:04.410Z,11.23
2018-08-16T05:32:32.105Z,10.53
2018-08-16T05:34:59.824Z,9.00
2018-08-16T05:37:27.534Z,9.70
2018-08-16T05:39:55.218Z,9.60
2018-08-16T05:42:22.912Z,9.10
2018-08-16T05:44:50.573Z,9.37
2018-08-16T05:47:18.269Z,8.30
2018-08-16T05:49:45.917Z,8.10
2018-08-16T05:52:13.617Z,9.03
2018-08-16T05:54:41.281Z,8.80
2018-08-16T05:57:08.965Z,8.70
2018-08-16T05:59:36.699Z,9.10
2018-08-16T06:02:04.423Z,8.73
2018-08-16T06:04:32.115Z,8.27
2018-08-16T06:06:59.818Z,8.40
2018-08-16T06:09:27.465Z,8.07
2018-08-16T06:11:55.165Z,8.00
2018-08-16T06:14:22.831Z,8.27
2018-08-16T06:16:50.494Z,9.07
2018-08-16T06:19:18.188Z,9.27
2018-08-16T06:21:45.902Z,10.07
2018-08-16T06:24:13.608Z,10.70
2018-08-16T06:26:41.380Z,9.70
2018-08-16T06:29:09.098Z,9.97
2018-08-16T06:31:36.935Z,10.00
2018-08-16T06:34:04.727Z,9.93
2018-08-16T06:36:32.402Z,10.30
2018-08-16T06:39:00.174Z,9.97
2018-08-16T06:41:27.886Z,9.43
2018-08-16T06:43:55.574Z,9.73
2018-08-16T06:46:23.359Z,8.83
2018-08-16T06:48:51.115Z,9.40
2018-08-16T06:51:18.829Z,8.90
2018-08-16T06:53:46.542Z,9.03
2018-08-16T06:56:14.295Z,8.17
2018-08-16T06:58:42.046Z,8.40
2018-08-16T07:01:09.867Z,8.53
2018-08-16T07:03:37.547Z,7.57
2018-08-16T07:06:05.393Z,8.37
2018-08-16T07:08:33.073Z,7.30
2018-08-16T07:11:00.921Z,6.60
2018-08-16T07:13:28.658Z,7.90
2018-08-16T07:15:56.324Z,6.53
2018-08-16T07:18:24.001Z,7.17
2018-08-16T07:20:51.682Z,7.03
2018-08-16T07:23:19.437Z,7.47
2018-08-16T07:25:47.108Z,7.33
2018-08-16T07:28:14.817Z,7.27
2018-08-16T07:30:42.515Z,6.77
2018-08-16T07:33:10.166Z,6.70
2018-08-16T07:35:37.881Z,6.80
2018-08-16T07:38:05.634Z,7.60
2018-08-16T07:40:33.342Z,6.40
2018-08-16T07:43:01.043Z,6.70
2018-08-16T07:45:28.823Z,6.47
2018-08-16T07:47:56.594Z,6.77
2018-08-16T07:50:24.324Z,7.10
2018-08-16T07:52:52.057Z,6.47
2018-08-16T07:55:19.760Z,6.50
2018-08-16T07:57:47.448Z,6.47
2018-08-16T08:00:18.716Z,6.27
2018-08-16T08:02:46.842Z,6.03
2018-08-16T08:05:14.647Z,5.70
2018-08-16T08:07:42.677Z,5.67
2018-08-16T08:10:10.456Z,5.67
2018-08-16T08:12:38.863Z,5.90
2018-08-16T08:15:09.144Z,5.67
2018-08-16T08:17:37.261Z,6.33
2018-08-16T08:20:06.946Z,5.93
2018-08-16T08:22:34.664Z,6.00
2018-08-16T08:25:02.419Z,5.27
2018-08-16T08:27:30.141Z,5.83
2018-08-16T08:29:57.864Z,6.13
2018-08-16T08:32:25.593Z,6.00
2018-08-16T08:34:53.352Z,5.80
2018-08-16T08:37:32.129Z,5.87
2018-08-16T08:39:59.830Z,5.80
2018-08-16T08:42:27.536Z,6.90
2018-08-16T08:44:55.195Z,6.37
2018-08-16T08:47:27.381Z,6.07
2018-08-16T08:49:55.934Z,6.30
2018-08-16T08:52:23.593Z,6.20
2018-08-16T08:55:02.331Z,6.13
2018-08-16T08:57:41.620Z,6.33
2018-08-16T09:00:09.524Z,5.57
2018-08-16T09:02:37.210Z,5.80
2018-08-16T09:05:05.558Z,6.37
2018-08-16T09:07:33.342Z,6.20
2018-08-16T09:11:19.148Z,6.03
2018-08-16T09:14:00.337Z,5.33
2018-08-16T09:16:33.263Z,5.60
2018-08-16T09:19:01.182Z,6.37
2018-08-16T09:21:29.560Z,6.03
2018-08-16T09:23:57.374Z,6.20
2018-08-16T09:26:30.578Z,6.30
2018-08-16T09:28:58.395Z,6.10
2018-08-16T09:31:37.284Z,5.80
2018-08-16T09:34:14.059Z,5.23
2018-08-16T09:36:41.765Z,6.30
2018-08-16T09:39:09.605Z,5.07
2018-08-16T09:41:37.546Z,5.77
2018-08-16T09:44:05.446Z,6.13
2018-08-16T09:47:11.603Z,6.07
2018-08-16T09:49:41.314Z,5.80
2018-08-16T09:52:10.097Z,6.30
2018-08-16T09:54:37.885Z,5.90
2018-08-16T09:57:07.133Z,6.03
2018-08-16T09:59:35.115Z,6.00
2018-08-16T10:02:03.448Z,6.20
2018-08-16T10:04:31.086Z,5.47
2018-08-16T10:06:58.919Z,5.60
2018-08-16T10:09:28.877Z,5.90
2018-08-16T10:11:57.534Z,5.83
2018-08-16T10:14:25.332Z,6.60
2018-08-16T10:16:53.042Z,6.00
2018-08-16T10:19:21.054Z,5.90
2018-08-16T10:21:48.816Z,5.40
2018-08-16T10:24:16.547Z,6.03
2018-08-16T10:26:44.241Z,5.40
2018-08-16T10:29:12.330Z,6.07
2018-08-16T10:31:40.162Z,6.33
2018-08-16T10:34:07.984Z,5.77
2018-08-16T10:36:35.744Z,5.87
2018-08-16T10:39:05.562Z,5.40
2018-08-16T10:41:33.346Z,5.80
2018-08-16T10:44:01.048Z,6.23
2018-08-16T10:46:28.866Z,5.63
2018-08-16T10:48:56.639Z,5.53
2018-08-16T10:51:24.371Z,5.80
2018-08-16T10:53:52.130Z,6.20
2018-08-16T10:56:20.164Z,6.17
2018-08-16T10:58:47.902Z,6.00
2018-08-16T11:01:15.662Z,5.40
2018-08-16T11:03:43.413Z,5.73
2018-08-16T11:06:11.206Z,5.70
2018-08-16T11:08:38.918Z,5.60
2018-08-16T11:11:06.915Z,5.63
2018-08-16T11:13:34.586Z,6.63
2018-08-16T11:16:02.285Z,5.67
2018-08-16T11:18:30.323Z,5.40
2018-08-16T11:20:58.056Z,5.73
2018-08-16T11:23:25.778Z,5.30
2018-08-16T11:25:53.614Z,5.77
2018-08-16T11:28:21.316Z,5.57
2018-08-16T11:30:49.062Z,5.30
2018-08-16T11:33:16.839Z,5.47
2018-08-16T11:35:44.518Z,5.97
2018-08-16T11:38:13.114Z,5.28
2018-08-16T11:40:40.878Z,6.08
2018-08-16T11:43:08.578Z,5.08
2018-08-16T11:45:36.283Z,5.70
2018-08-16T11:48:04.083Z,6.10
2018-08-16T11:50:32.086Z,5.23
2018-08-16T11:52:59.793Z,5.30
2018-08-16T11:55:27.496Z,5.55
2018-08-16T11:57:55.188Z,5.23
2018-08-16T12:00:22.933Z,5.28
2018-08-16T12:02:50.694Z,5.37
2018-08-16T12:05:18.477Z,5.70
2018-08-16T12:07:46.197Z,5.77
2018-08-16T12:10:14.785Z,5.50
2018-08-16T12:12:42.481Z,5.13
2018-08-16T12:15:10.245Z,5.60
2018-08-16T12:17:38.009Z,5.00
2018-08-16T12:20:06.678Z,5.63
2018-08-16T12:22:34.678Z,5.23
2018-08-16T12:25:02.494Z,5.37
2018-08-16T12:27:30.342Z,4.90
2018-08-16T12:29:58.075Z,5.47
2018-08-16T12:32:25.842Z,4.93
2018-08-16T12:34:53.552Z,4.95
2018-08-16T12:37:21.266Z,5.08
2018-08-16T12:39:49.000Z,5.08
2018-08-16T12:42:16.848Z,5.45
2018-08-16T12:44:44.437Z,5.15
2018-08-16T12:47:12.169Z,5.03
2018-08-16T12:49:39.860Z,5.37
2018-08-16T12:52:07.977Z,5.28
2018-08-16T12:54:35.737Z,5.20
2018-08-16T12:57:03.538Z,4.80
2018-08-16T12:59:31.234Z,4.70
2018-08-16T13:01:59.015Z,4.70
2018-08-16T13:04:26.707Z,4.97
2018-08-16T13:06:54.506Z,5.97
2018-08-16T13:09:22.243Z,4.92
2018-08-16T13:11:49.963Z,5.35
2018-08-16T13:14:17.737Z,4.70
2018-08-16T13:16:45.464Z,5.08
2018-08-16T13:19:13.218Z,4.90
2018-08-16T13:21:40.935Z,5.25
2018-08-16T13:24:08.746Z,5.47
2018-08-16T13:26:36.492Z,4.42
2018-08-16T13:29:04.655Z,5.33
2018-08-16T13:31:32.387Z,5.20
2018-08-16T13:34:00.143Z,4.90
2018-08-16T13:36:27.886Z,4.70
2018-08-16T13:38:55.683Z,5.72
2018-08-16T13:41:23.537Z,5.53
2018-08-16T13:43:51.315Z,5.13
2018-08-16T13:46:19.103Z,4.70
2018-08-16T13:48:46.936Z,4.58
2018-08-16T13:51:14.590Z,4.50
2018-08-16T13:53:42.274Z,4.35
2018-08-16T13:56:10.047Z,4.70
2018-08-16T13:58:37.791Z,4.60
2018-08-16T14:01:05.543Z,5.10
2018-08-16T14:03:33.318Z,5.05
2018-08-16T14:06:01.025Z,4.08
2018-08-16T14:08:28.770Z,4.70
2018-08-16T14:10:56.492Z,5.00
2018-08-16T14:13:24.304Z,5.12
2018-08-16T14:15:52.414Z,4.45
2018-08-16T14:18:20.105Z,4.45
2018-08-16T14:20:47.874Z,5.00
2018-08-16T14:23:15.623Z,4.45
2018-08-16T14:25:43.339Z,4.62
2018-08-16T14:28:11.050Z,5.12
2018-08-16T14:30:38.852Z,4.90
2018-08-16T14:33:06.589Z,4.60
2018-08-16T14:35:34.650Z,5.25
2018-08-16T14:38:02.367Z,4.85
2018-08-16T14:40:30.087Z,5.20
2018-08-16T14:42:57.826Z,4.90
2018-08-16T14:45:25.590Z,4.87
2018-08-16T14:47:53.420Z,4.80
2018-08-16T14:50:21.250Z,4.57
2018-08-16T14:52:49.037Z,4.90
2018-08-16T14:55:16.754Z,4.60
2018-08-16T14:57:44.520Z,4.87
2018-08-16T15:00:12.217Z,4.53
2018-08-16T15:02:40.519Z,5.17
2018-08-16T15:05:08.684Z,4.30
2018-08-16T15:07:36.388Z,4.30
2018-08-16T15:10:04.975Z,4.50
2018-08-16T15:12:32.728Z,4.03
2018-08-16T15:15:01.430Z,4.37
2018-08-16T15:17:29.152Z,4.93
2018-08-16T15:19:56.882Z,4.73
2018-08-16T15:22:24.622Z,4.77
2018-08-16T15:24:52.334Z,4.70
2018-08-16T15:27:20.031Z,4.23
2018-08-16T15:29:47.754Z,4.03
2018-08-16T15:32:15.529Z,4.90
2018-08-16T15:34:43.250Z,4.53
2018-08-16T15:37:10.953Z,4.37
2018-08-16T15:39:38.710Z,4.60
2018-08-16T15:42:06.494Z,4.80
2018-08-16T15:44:34.231Z,4.70
2018-08-16T15:47:01.954Z,6.27
2018-08-16T15:49:29.652Z,5.27
2018-08-16T15:51:57.730Z,4.90
2018-08-16T15:54:25.506Z,5.17
2018-08-16T15:56:53.255Z,5.30
2018-08-16T15:59:21.011Z,5.77
2018-08-16T16:01:50.799Z,5.43
2018-08-16T16:04:19.841Z,4.90
2018-08-16T16:06:47.578Z,5.50
2018-08-16T16:09:15.264Z,4.87
2018-08-16T16:11:42.963Z,4.80
2018-08-16T16:14:10.723Z,5.17
2018-08-16T16:16:38.455Z,4.80
2018-08-16T16:19:06.262Z,5.20
2018-08-16T16:21:34.013Z,5.05
2018-08-16T16:24:02.014Z,4.80
2018-08-16T16:26:29.798Z,5.00
2018-08-16T16:28:57.526Z,5.73
2018-08-16T16:31:27.053Z,5.20
2018-08-16T16:33:54.782Z,5.33
2018-08-16T16:36:22.928Z,4.77
2018-08-16T16:38:51.006Z,4.67
2018-08-16T16:41:19.034Z,4.83
2018-08-16T16:43:46.844Z,5.80
2018-08-16T16:46:14.667Z,5.67
2018-08-16T16:48:42.539Z,5.50
2018-08-16T16:51:12.982Z,5.87
2018-08-16T16:53:40.781Z,8.10
2018-08-16T16:56:08.850Z,9.43
2018-08-16T16:58:36.651Z,7.10
2018-08-16T17:01:04.859Z,6.50
2018-08-16T17:03:32.646Z,6.20
2018-08-16T17:06:00.371Z,7.23
2018-08-16T17:08:28.070Z,6.93
2018-08-16T17:10:55.766Z,6.77
2018-08-16T17:13:23.628Z,23.10
2018-08-16T17:15:51.349Z,8.30
2018-08-16T17:18:19.090Z,155.50
2018-08-16T17:20:46.782Z,240.87
2018-08-16T17:23:14.494Z,11.03
2018-08-16T17:25:42.250Z,10.50
2018-08-16T17:28:09.957Z,274.20
2018-08-16T17:30:37.801Z,499.70
2018-08-16T17:33:05.530Z,384.30
2018-08-16T17:35:33.250Z,360.97
2018-08-16T17:38:00.947Z,594.00
2018-08-16T17:40:28.680Z,87.70
2018-08-16T17:42:56.376Z,7.70
2018-08-16T17:45:24.196Z,6.90
2018-08-16T17:47:51.938Z,6.70
2018-08-16T17:50:20.009Z,7.33
2018-08-16T17:52:47.757Z,7.67
2018-08-16T17:55:15.464Z,7.37
2018-08-16T17:57:43.166Z,6.30
2018-08-16T18:00:11.865Z,7.90
2018-08-16T18:02:39.906Z,6.33
2018-08-16T18:05:08.132Z,6.50
2018-08-16T18:07:36.157Z,6.70
2018-08-16T18:10:05.295Z,6.50
2018-08-16T18:12:33.367Z,7.00
2018-08-16T18:15:01.078Z,6.60
2018-08-16T18:17:29.533Z,7.00
2018-08-16T18:19:57.229Z,6.90
2018-08-16T18:22:24.898Z,6.60
2018-08-16T18:24:52.674Z,9.50
2018-08-16T18:27:20.461Z,8.13
2018-08-16T18:29:48.209Z,7.27
2018-08-16T18:32:15.915Z,6.87
2018-08-16T18:34:43.631Z,6.27
2018-08-16T18:37:11.337Z,5.83
2018-08-16T18:39:39.038Z,5.80
2018-08-16T18:42:06.834Z,5.50
2018-08-16T18:44:34.577Z,6.63
2018-08-16T18:47:02.276Z,5.97
2018-08-16T18:49:30.594Z,5.97
2018-08-16T18:51:58.451Z,6.60
2018-08-16T18:54:26.236Z,5.77
2018-08-16T18:56:54.126Z,5.60
2018-08-16T18:59:22.397Z,5.90
2018-08-16T19:01:50.193Z,6.60
2018-08-16T19:04:18.302Z,6.00
2018-08-16T19:06:46.072Z,6.27
2018-08-16T19:09:13.801Z,5.40
2018-08-16T19:11:41.602Z,6.03
2018-08-16T19:14:09.567Z,5.77
2018-08-16T19:16:37.750Z,5.73
2018-08-16T19:19:05.887Z,5.47
2018-08-16T19:21:33.973Z,5.77
2018-08-16T19:24:01.642Z,6.77
2018-08-16T19:26:29.370Z,7.23
2018-08-16T19:28:57.062Z,6.97
2018-08-16T19:31:24.794Z,5.90
2018-08-16T19:33:52.752Z,7.20
2018-08-16T19:36:20.491Z,6.03
2018-08-16T19:38:48.247Z,8.30
2018-08-16T19:41:16.029Z,5.97
2018-08-16T19:43:43.759Z,6.43
2018-08-16T19:46:11.565Z,5.57
2018-08-16T19:48:39.324Z,5.67
2018-08-16T19:51:07.356Z,5.30
2018-08-16T19:53:35.145Z,5.53
2018-08-16T19:56:02.937Z,5.50
2018-08-16T19:58:30.677Z,5.27
2018-08-16T20:00:58.795Z,5.90
2018-08-16T20:03:27.168Z,5.63
2018-08-16T20:05:54.898Z,5.23
2018-08-16T20:08:22.625Z,6.00
2018-08-16T20:10:50.382Z,6.67
2018-08-16T20:13:18.222Z,6.00
2018-08-16T20:15:46.817Z,5.50
2018-08-16T20:18:14.647Z,6.00
2018-08-16T20:20:42.338Z,5.37
2018-08-16T20:23:10.364Z,5.30
2018-08-16T20:25:38.132Z,5.20
2018-08-16T20:28:06.343Z,5.40
2018-08-16T20:30:34.116Z,4.87
2018-08-16T20:33:01.837Z,4.70
2018-08-16T20:35:29.573Z,5.20
2018-08-16T20:37:57.342Z,5.37
2018-08-16T20:40:25.117Z,7.00
2018-08-16T20:42:52.898Z,5.10
2018-08-16T20:45:20.722Z,5.10
2018-08-16T20:47:48.543Z,6.00
2018-08-16T20:50:16.348Z,6.53
2018-08-16T20:52:44.084Z,7.43
2018-08-16T20:55:11.886Z,6.63
2018-08-16T20:57:39.657Z,5.70
2018-08-16T21:00:09.021Z,6.10
2018-08-16T21:02:36.709Z,5.97
2018-08-16T21:05:05.035Z,5.30
2018-08-16T21:07:32.728Z,6.03
2018-08-16T21:10:00.428Z,5.17
2018-08-16T21:12:28.167Z,5.40
2018-08-16T21:14:55.915Z,5.40
2018-08-16T21:17:23.619Z,5.07
2018-08-16T21:19:51.310Z,5.50
2018-08-16T21:22:19.041Z,5.40
2018-08-16T21:24:46.731Z,5.63
2018-08-16T21:27:14.426Z,4.77
2018-08-16T21:29:42.136Z,5.07
2018-08-16T21:32:09.826Z,5.33
2018-08-16T21:34:37.560Z,5.13
2018-08-16T21:37:05.474Z,5.17
2018-08-16T21:39:33.474Z,5.17
2018-08-16T21:42:01.162Z,5.30
2018-08-16T21:44:28.835Z,5.07
2018-08-16T21:46:56.489Z,5.43
2018-08-16T21:49:24.216Z,5.90
2018-08-16T21:51:51.886Z,6.77
2018-08-16T21:54:19.557Z,5.83
2018-08-16T21:56:47.225Z,5.87
2018-08-16T21:59:14.885Z,5.37
2018-08-16T22:01:42.638Z,6.10
2018-08-16T22:04:10.384Z,5.60
2018-08-16T22:06:49.212Z,8.93
2018-08-16T22:09:16.950Z,6.83
2018-08-16T22:11:44.637Z,5.87
2018-08-16T22:14:12.309Z,6.10
2018-08-16T22:16:39.974Z,5.23
2018-08-16T22:19:07.678Z,5.67
2018-08-16T22:21:35.403Z,6.30
2018-08-16T22:24:03.239Z,6.20
2018-08-16T22:26:31.372Z,5.63
2018-08-16T22:28:59.051Z,5.13
2018-08-16T22:31:26.759Z,5.80
2018-08-16T22:33:54.470Z,5.93
2018-08-16T22:36:22.160Z,5.43
2018-08-16T22:38:49.848Z,5.53
2018-08-16T22:41:17.513Z,5.53
2018-08-16T22:43:45.214Z,5.93
2018-08-16T22:46:12.898Z,6.40
2018-08-16T22:48:40.579Z,6.13
2018-08-16T22:51:08.247Z,6.37
2018-08-16T22:53:35.931Z,5.90
2018-08-16T22:56:03.650Z,5.40
2018-08-16T22:58:31.338Z,5.90
2018-08-16T23:00:59.002Z,5.67
2018-08-16T23:03:26.662Z,5.70
2018-08-16T23:05:54.353Z,5.73
2018-08-16T23:08:22.055Z,5.73
2018-08-16T23:10:49.759Z,6.23
2018-08-16T23:13:17.439Z,6.30
2018-08-16T23:15:45.141Z,5.80
2018-08-16T23:18:12.827Z,6.20
2018-08-16T23:20:40.494Z,6.60
2018-08-16T23:23:08.149Z,5.90
2018-08-16T23:25:35.835Z,5.80
2018-08-16T23:28:03.509Z,6.43
2018-08-16T23:30:31.174Z,6.40
2018-08-16T23:32:58.943Z,6.20
2018-08-16T23:35:26.600Z,5.90
2018-08-16T23:37:54.257Z,6.83
2018-08-16T23:40:21.929Z,7.57
2018-08-16T23:42:49.798Z,6.97
2018-08-16T23:45:17.489Z,7.30
2018-08-16T23:47:56.387Z,6.80
2018-08-16T23:50:24.112Z,6.37
2018-08-16T23:52:51.822Z,6.47
2018-08-16T23:55:19.538Z,6.37
2018-08-16T23:57:47.236Z,6.93
